Ana Sayfa
METAR-TAF:

METAR-TAF

Havaalanları :

Sinop Havalimanı

Sinop, Türkiye

Enlem: 42-00-57N, Boylam: 035-03-59E, yükseklik: 7 m

Güncel hava durumu gözlemi

Rapor saat 04:50 UTC de 36 dakika önce yapıldı.
Rüzgar doğu/güneydoğudan 6 kt
Sıcaklık 13°C
Nem 88%
Basınç 1024 hPa
Görüş mesafesi: 8000 m
1300 ft yükseklikte parçalı çok bulutlu

METAR: LTCM 170450Z 12006KT 8000 BKN013 13/11 Q1024

Saat: 08:26 (05:26 UTC)

Tahmin

Rapor saat 01:40 UTC de 3 saat ve 46 dakika önce yapıldı.
Ayın 17'si saat 03 UTC'den ayın 17'si saat 12 UTC'ye kadar geçerli Tahmin
Rüzgar doğudan 9 kt
Görüş mesafesi: 6000 m
1000 ft yükseklikte az bulutlu
3000 ft yükseklikte parçalı bulutlu

TAF: LTCM 170140Z 1703/1712 09009KT 6000 FEW010 SCT030

4.000'den fazla havaalanı için hava durumu gözlemleri ve tahminleri (METAR ve TAF raporları).

Kullanılabilir istasyonlar harita üzerinde sarı ve kırmızı noktalarla gösterilir.

İstasyonun adını görmek için fareyi noktanın üzerinde gezdirin.

Sonrasında hava gözlem ve tahminlerini görmek için tıklayın.

Haritayı değiştirmek için: yaklaştırmak için siyah artı işaretli yeşil düğmeye ve uzaklaştırmak için de eksi işaretli düğmeye hızla tıklayın; bitişik haritalar için yeşil okları kullanın.


METAR-TAF: